Time;durP1;ratioP1;P1;durP2;ratioP2;P2;SDS_P1;SDS_P2;PMS_P1;PMS_P2;Temp;Humidity;BMP_temperature;BMP_pressure;BME280_temperature;BME280_humidity;BME280_pressure;Samples;Min_cycle;Max_cycle;Signal;HPM_P1;HPM_P2
2023/12/19 00:01:55;;;;;;;52.43;25.07;;;3.40;99.90;;;3.12;66.37;96226.16;5080851;28;20494;-60
2023/12/19 00:04:24;;;;;;;56.27;27.13;;;3.40;99.90;;;3.11;66.52;96227.06;5083186;28;20977;-59
2023/12/19 00:06:51;;;;;;;47.87;26.00;;;3.40;99.90;;;3.11;66.58;96223.63;5081010;28;20567;-60
2023/12/19 00:09:18;;;;;;;48.17;27.10;;;3.40;99.90;;;3.11;66.69;96234.84;5083210;28;20465;-60
2023/12/19 00:11:46;;;;;;;52.67;27.27;;;3.30;99.90;;;3.10;66.28;96233.19;5080943;28;20469;-57
2023/12/19 00:14:13;;;;;;;54.43;26.90;;;3.40;99.90;;;3.09;66.15;96233.25;5082966;28;20454;-57
2023/12/19 00:16:40;;;;;;;57.27;28.57;;;3.40;99.90;;;3.08;66.11;96229.78;5081499;28;20514;-56
2023/12/19 00:19:09;;;;;;;66.23;28.63;;;3.30;99.90;;;3.05;66.66;96229.91;5082983;28;20850;-55
2023/12/19 00:21:38;;;;;;;63.23;29.47;;;3.30;99.90;;;3.03;66.56;96234.31;5081065;28;20970;-59
2023/12/19 00:24:06;;;;;;;57.47;29.43;;;3.30;99.90;;;3.00;66.62;96227.47;5082925;28;20504;-61
2023/12/19 00:26:33;;;;;;;56.93;28.50;;;3.30;99.90;;;2.99;67.10;96236.22;5080779;28;20504;-59
2023/12/19 00:29:00;;;;;;;59.30;30.13;;;3.30;99.90;;;2.98;66.89;96238.88;5084096;28;20841;-60
2023/12/19 00:31:27;;;;;;;62.60;29.10;;;3.30;99.90;;;2.96;67.46;96238.06;5082960;28;20450;-55
2023/12/19 00:33:55;;;;;;;49.43;27.20;;;3.20;99.90;;;2.94;66.99;96243.31;5080654;28;20934;-59
2023/12/19 00:36:22;;;;;;;54.07;27.47;;;3.20;99.90;;;2.93;67.32;96246.84;5082360;28;20822;-59
2023/12/19 00:38:51;;;;;;;57.07;27.77;;;3.20;99.90;;;2.93;66.60;96241.66;5080502;28;20980;-55
2023/12/19 00:41:18;;;;;;;49.10;27.20;;;3.20;99.90;;;2.93;66.93;96243.38;5082535;28;20834;-59
2023/12/19 00:43:45;;;;;;;63.70;31.27;;;3.20;99.90;;;2.90;66.48;96241.75;5080229;28;21028;-59
2023/12/19 00:46:13;;;;;;;58.60;27.50;;;3.10;99.90;;;2.87;67.14;96232.31;5082141;28;20483;-57
2023/12/19 00:48:40;;;;;;;60.03;28.47;;;3.20;99.90;;;2.85;66.93;96235.88;5080407;28;20457;-59
2023/12/19 00:51:10;;;;;;;53.80;29.67;;;3.10;99.90;;;2.82;67.45;96234.25;5082461;28;20962;-59
2023/12/19 00:53:37;;;;;;;66.70;29.03;;;3.10;99.90;;;2.80;67.18;96233.44;5080550;28;20455;-56
2023/12/19 00:56:09;;;;;;;54.00;29.33;;;3.10;99.90;;;2.79;66.89;96231.78;5082091;28;20479;-57
2023/12/19 00:58:37;;;;;;;51.17;26.33;;;3.10;99.90;;;2.81;67.85;96237.75;5079793;28;20443;-60
2023/12/19 01:01:05;;;;;;;60.53;27.90;;;3.10;99.90;;;2.81;67.21;96226.53;5082673;28;20932;-56
2023/12/19 01:03:32;;;;;;;47.00;26.30;;;3.10;99.90;;;2.82;66.75;96231.66;5079755;28;20489;-56
2023/12/19 01:06:00;;;;;;;51.23;25.13;;;3.10;99.90;;;2.83;67.55;96229.91;5082205;28;21005;-59
2023/12/19 01:08:27;;;;;;;52.60;26.83;;;3.10;99.90;;;2.84;66.81;96226.41;5079413;28;20455;-55
2023/12/19 01:10:55;;;;;;;56.53;26.97;;;3.10;99.90;;;2.79;67.40;96218.78;5081953;28;20492;-55
2023/12/19 01:13:26;;;;;;;53.00;27.33;;;3.10;99.90;;;2.82;67.74;96223.00;5079642;28;20451;-60
2023/12/19 01:15:53;;;;;;;51.03;26.30;;;3.10;99.90;;;2.82;67.44;96218.66;5082389;28;20481;-59
2023/12/19 01:18:20;;;;;;;48.23;24.43;;;3.10;99.90;;;2.82;66.77;96212.59;5078954;28;20455;-58
2023/12/19 01:20:48;;;;;;;45.17;25.80;;;3.10;99.90;;;2.81;67.49;96211.78;5081915;28;20474;-59
2023/12/19 01:23:16;;;;;;;52.00;26.33;;;3.10;99.90;;;2.80;66.94;96207.47;5077902;28;21026;-58
2023/12/19 01:25:43;;;;;;;49.50;25.60;;;3.10;99.90;;;2.80;67.00;96215.25;5081929;28;20474;-54
2023/12/19 01:28:11;;;;;;;45.63;24.37;;;3.10;99.90;;;2.79;67.08;96216.19;5078832;28;20540;-58
2023/12/19 01:30:40;;;;;;;41.27;22.07;;;3.00;99.90;;;2.77;66.61;96217.97;5081900;28;20469;-56
2023/12/19 01:33:08;;;;;;;31.40;18.30;;;3.00;99.90;;;2.77;66.89;96220.56;5078660;28;20443;-58
2023/12/19 01:35:36;;;;;;;29.40;16.20;;;3.00;99.90;;;2.76;67.28;96213.72;5082127;28;20473;-58
2023/12/19 01:38:03;;;;;;;33.77;18.00;;;3.00;99.90;;;2.76;67.39;96208.50;5078313;28;20451;-54
2023/12/19 01:40:31;;;;;;;34.53;16.57;;;3.00;99.90;;;2.75;67.44;96204.22;5081517;28;20470;-58
2023/12/19 01:42:58;;;;;;;30.47;15.23;;;3.00;99.90;;;2.74;66.66;96202.50;5078125;28;20522;-58
2023/12/19 01:45:27;;;;;;;31.50;15.33;;;3.00;99.90;;;2.75;67.41;96201.63;5081684;28;20578;-55
2023/12/19 01:47:55;;;;;;;22.70;12.83;;;3.00;99.90;;;2.74;67.08;96204.28;5077778;28;20543;-57
2023/12/19 01:50:23;;;;;;;24.30;13.63;;;3.00;99.90;;;2.74;66.96;96199.91;5081710;28;20474;-55
2023/12/19 01:52:53;;;;;;;22.97;13.50;;;3.00;99.90;;;2.73;66.98;96202.56;5081823;28;20477;-54
2023/12/19 01:55:20;;;;;;;26.20;13.87;;;3.00;99.90;;;2.72;66.78;96199.13;5077737;28;21078;-55
2023/12/19 01:57:48;;;;;;;27.10;13.90;;;3.00;99.90;;;2.70;66.96;96195.75;5078119;28;20451;-59
2023/12/19 02:00:16;;;;;;;26.17;14.00;;;3.00;99.90;;;2.71;67.06;96199.19;5077916;28;20479;-56
2023/12/19 02:02:43;;;;;;;19.07;13.20;;;3.00;99.90;;;2.67;66.66;96194.13;5077924;28;20568;-56
2023/12/19 02:05:12;;;;;;;24.93;12.53;;;2.90;99.90;;;2.67;67.09;96182.88;5078009;28;20467;-59
2023/12/19 02:07:40;;;;;;;22.37;13.30;;;3.00;99.90;;;2.65;66.73;96185.53;5078022;28;20614;-59
2023/12/19 02:10:08;;;;;;;26.33;14.70;;;2.90;99.90;;;2.63;66.51;96187.38;5077393;28;20557;-59
2023/12/19 02:12:35;;;;;;;23.63;14.27;;;2.90;99.90;;;2.62;66.57;96185.66;5077513;28;20523;-59
2023/12/19 02:15:03;;;;;;;20.00;13.07;;;2.90;99.90;;;2.60;67.34;96186.63;5077492;28;20550;-55
2023/12/19 02:17:30;;;;;;;24.20;12.80;;;2.90;99.90;;;2.57;66.49;96181.53;5077290;28;20463;-56
2023/12/19 02:19:59;;;;;;;24.27;13.60;;;2.90;99.90;;;2.54;67.03;96179.06;5077323;28;20615;-56
2023/12/19 02:22:29;;;;;;;24.70;13.63;;;2.80;99.90;;;2.51;67.47;96180.88;5077195;28;20851;-59
2023/12/19 02:24:58;;;;;;;23.33;12.60;;;2.80;99.90;;;2.51;66.81;96182.63;5077800;28;20573;-58
2023/12/19 02:27:25;;;;;;;25.70;13.20;;;2.80;99.90;;;2.50;66.87;96183.53;5080796;28;20511;-54
2023/12/19 02:29:53;;;;;;;19.63;11.80;;;2.80;99.90;;;2.50;67.06;96179.19;5077625;28;20609;-54
2023/12/19 02:32:20;;;;;;;23.83;13.00;;;2.80;99.90;;;2.50;66.92;96180.94;5080903;28;20446;-58
2023/12/19 02:34:49;;;;;;;22.63;13.33;;;2.80;99.90;;;2.50;66.86;96171.38;5077259;28;21007;-60
2023/12/19 02:37:16;;;;;;;23.60;13.90;;;2.80;99.90;;;2.49;67.39;96167.13;5080933;28;20465;-59
2023/12/19 02:39:43;;;;;;;23.23;12.53;;;2.80;99.90;;;2.50;67.40;96176.59;5077301;28;20463;-59
2023/12/19 02:42:12;;;;;;;29.07;12.87;;;2.80;99.90;;;2.49;66.91;96163.66;5080954;28;20466;-57
2023/12/19 02:44:39;;;;;;;15.67;9.37;;;2.80;99.90;;;2.48;66.46;96167.19;5077271;28;20495;-54
2023/12/19 02:47:06;;;;;;;18.67;10.87;;;2.80;99.90;;;2.45;66.20;96169.88;5080463;28;20460;-55
2023/12/19 02:49:34;;;;;;;13.60;9.70;;;2.70;99.90;;;2.40;66.18;96164.88;5077073;28;20586;-55
2023/12/19 02:52:01;;;;;;;23.17;12.77;;;2.70;99.90;;;2.36;66.63;96167.63;5080755;28;20454;-59
2023/12/19 02:54:28;;;;;;;27.20;14.90;;;2.70;99.90;;;2.31;66.68;96171.25;5077169;28;21016;-57
2023/12/19 02:56:55;;;;;;;27.77;13.90;;;2.60;99.90;;;2.29;66.27;96172.19;5080774;28;20459;-54
2023/12/19 02:59:24;;;;;;;26.43;14.70;;;2.60;99.90;;;2.26;66.79;96173.19;5077434;28;20475;-55
2023/12/19 03:01:51;;;;;;;25.30;14.23;;;2.60;99.90;;;2.24;66.54;96174.97;5077541;28;20891;-55
2023/12/19 03:04:19;;;;;;;31.13;15.30;;;2.50;99.90;;;2.22;66.79;96166.41;5077255;28;20935;-56
2023/12/19 03:06:46;;;;;;;30.50;17.00;;;2.50;99.90;;;2.22;67.82;96166.41;5077141;28;20447;-55
2023/12/19 03:09:13;;;;;;;25.70;14.53;;;2.50;99.90;;;2.23;67.04;96167.22;5080802;28;20445;-56
2023/12/19 03:11:40;;;;;;;18.73;10.57;;;2.50;99.90;;;2.22;67.33;96163.78;5080904;28;20447;-59
2023/12/19 03:14:08;;;;;;;17.07;10.23;;;2.50;99.90;;;2.23;66.86;96168.09;5076983;28;20836;-56
2023/12/19 03:16:36;;;;;;;20.20;12.03;;;2.50;99.90;;;2.23;66.97;96162.03;5080717;28;20834;-60
2023/12/19 03:19:04;;;;;;;31.43;13.23;;;2.50;99.90;;;2.24;67.36;96163.75;5076488;28;20446;-59
2023/12/19 03:21:31;;;;;;;22.60;13.17;;;2.50;99.90;;;2.25;66.54;96170.63;5077061;28;20466;-59
2023/12/19 03:23:58;;;;;;;28.50;14.53;;;2.50;99.90;;;2.25;66.85;96175.81;5080340;28;20485;-59
2023/12/19 03:26:25;;;;;;;31.57;16.07;;;2.50;99.90;;;2.25;67.17;96165.44;5076957;28;20451;-59
2023/12/19 03:28:53;;;;;;;26.57;14.07;;;2.50;99.90;;;2.23;67.00;96170.69;5080086;28;20468;-60
2023/12/19 03:31:20;;;;;;;17.00;10.70;;;2.50;99.90;;;2.17;66.23;96172.66;5077347;28;20858;-60
2023/12/19 03:33:48;;;;;;;32.03;17.33;;;2.50;99.90;;;2.10;66.71;96172.03;5079915;28;20819;-54
2023/12/19 03:36:16;;;;;;;89.07;44.87;;;2.40;99.90;;;2.03;66.20;96175.75;5076580;28;20462;-56
2023/12/19 03:38:43;;;;;;;129.37;60.77;;;2.40;99.90;;;1.97;67.49;96172.47;5079693;28;20454;-60
2023/12/19 03:41:10;;;;;;;54.63;30.60;;;2.30;99.90;;;1.95;67.62;96165.66;5076864;28;20557;-55
2023/12/19 03:43:38;;;;;;;39.97;21.50;;;2.30;99.90;;;1.95;66.86;96168.25;5079546;28;21165;-59
2023/12/19 03:46:07;;;;;;;45.83;25.60;;;2.30;99.90;;;1.94;67.38;96171.75;5076988;28;20535;-53
2023/12/19 03:48:35;;;;;;;46.07;24.53;;;2.20;99.90;;;1.95;67.88;96168.25;5082855;28;20552;-56
2023/12/19 03:51:04;;;;;;;79.33;44.97;;;2.30;99.90;;;1.97;67.41;96169.06;5080697;28;20530;-60
2023/12/19 03:53:32;;;;;;;85.60;44.13;;;2.30;99.90;;;1.99;67.83;96164.63;5084673;28;20542;-54
2023/12/19 03:55:59;;;;;;;93.23;46.60;;;2.30;99.90;;;2.00;67.65;96171.53;5083834;28;20560;-61
2023/12/19 03:58:26;;;;;;;101.20;50.30;;;2.30;99.90;;;2.00;67.61;96163.75;5080315;28;20443;-55
2023/12/19 04:00:54;;;;;;;113.03;54.90;;;2.30;99.90;;;2.02;66.91;96161.09;5083258;28;20469;-56
2023/12/19 04:03:21;;;;;;;116.40;56.07;;;2.30;99.90;;;2.01;66.43;96155.03;5080614;28;20493;-56
2023/12/19 04:05:48;;;;;;;121.33;60.80;;;2.30;99.90;;;2.02;67.45;96151.56;5083241;28;20482;-60
2023/12/19 04:08:17;;;;;;;123.90;61.20;;;2.30;99.90;;;2.03;67.31;96145.47;5080508;28;20458;-61
2023/12/19 04:10:44;;;;;;;133.33;61.70;;;2.30;99.90;;;2.03;67.10;96153.25;5083290;28;20531;-55
2023/12/19 04:13:11;;;;;;;129.57;62.67;;;2.30;99.90;;;2.04;67.67;96152.34;5080493;28;20524;-56
2023/12/19 04:15:39;;;;;;;129.37;62.27;;;2.30;99.90;;;2.03;66.39;96149.78;5083218;28;20540;-56
2023/12/19 04:18:06;;;;;;;113.63;58.57;;;2.30;99.90;;;2.02;66.98;96148.97;5080349;28;20538;-60
2023/12/19 04:20:34;;;;;;;128.47;56.97;;;2.30;99.90;;;1.99;66.11;96143.88;5082884;28;20461;-61
2023/12/19 04:23:01;;;;;;;106.30;53.73;;;2.30;99.90;;;1.96;66.27;96144.84;5080111;28;20946;-57
2023/12/19 04:25:30;;;;;;;96.23;50.20;;;2.30;99.90;;;1.95;66.70;96148.34;5082934;28;20478;-56
2023/12/19 04:27:57;;;;;;;86.33;45.93;;;2.30;99.90;;;1.94;67.03;96153.59;5080523;28;21049;-61
2023/12/19 04:30:24;;;;;;;76.83;37.87;;;2.20;99.90;;;1.92;66.33;96157.97;5081906;28;20614;-61
2023/12/19 04:32:52;;;;;;;63.13;35.10;;;2.20;99.90;;;1.89;66.75;96152.88;5079982;28;21060;-61
2023/12/19 04:35:19;;;;;;;79.87;35.10;;;2.20;99.90;;;1.85;66.28;96153.94;5082368;28;20485;-57
2023/12/19 04:37:46;;;;;;;65.57;33.57;;;2.10;99.90;;;1.82;65.88;96160.06;5080243;28;20455;-54
2023/12/19 04:40:14;;;;;;;59.77;31.50;;;2.10;99.90;;;1.80;66.33;96154.09;5082398;28;20475;-61
2023/12/19 04:42:42;;;;;;;59.73;30.37;;;2.10;99.90;;;1.77;66.60;96162.81;5080613;28;20450;-57
2023/12/19 04:45:10;;;;;;;52.33;29.83;;;2.10;99.90;;;1.75;66.01;96162.03;5082160;28;20489;-61
2023/12/19 04:47:37;;;;;;;59.80;31.20;;;2.00;99.90;;;1.74;65.68;96168.09;5080129;28;20459;-56
2023/12/19 04:50:08;;;;;;;54.63;29.97;;;2.00;99.90;;;1.70;66.43;96171.69;5082005;28;20536;-57
2023/12/19 04:52:35;;;;;;;62.50;29.73;;;2.00;99.90;;;1.66;65.87;96175.31;5079865;28;20439;-61
2023/12/19 04:55:03;;;;;;;59.23;31.97;;;2.00;99.90;;;1.64;66.36;96168.47;5081993;28;20476;-56
2023/12/19 04:57:30;;;;;;;65.40;31.60;;;2.00;99.90;;;1.62;66.17;96184.09;5079766;28;20981;-61
2023/12/19 04:59:59;;;;;;;62.60;29.43;;;1.90;99.90;;;1.61;66.08;96172.88;5082118;28;20478;-58
2023/12/19 05:02:26;;;;;;;57.77;30.23;;;1.90;99.90;;;1.60;66.15;96172.94;5079197;28;21007;-61
2023/12/19 05:04:53;;;;;;;53.10;27.67;;;1.90;99.90;;;1.59;66.19;96179.00;5081462;28;20493;-61
2023/12/19 05:07:20;;;;;;;55.03;27.27;;;1.90;99.90;;;1.58;66.56;96187.69;5079581;28;20858;-56
2023/12/19 05:09:48;;;;;;;54.60;29.37;;;1.90;99.90;;;1.56;66.03;96185.13;5081233;28;20882;-56
2023/12/19 05:12:15;;;;;;;58.30;30.60;;;1.90;99.90;;;1.57;66.12;96183.41;5080091;28;20508;-61
2023/12/19 05:14:42;;;;;;;56.97;29.60;;;1.80;99.90;;;1.55;67.21;96185.19;5081621;28;20474;-62
2023/12/19 05:17:11;;;;;;;58.13;30.90;;;1.90;99.90;;;1.54;66.20;96189.53;5079526;28;20473;-62
2023/12/19 05:19:38;;;;;;;55.80;31.07;;;1.80;99.90;;;1.54;66.84;96186.13;5081143;28;20481;-56
2023/12/19 05:22:05;;;;;;;53.00;26.53;;;1.80;99.90;;;1.53;66.25;96189.59;5079371;28;20441;-56
2023/12/19 05:24:34;;;;;;;47.77;26.60;;;1.80;99.90;;;1.52;65.83;96185.28;5080983;28;20595;-57
2023/12/19 05:27:01;;;;;;;53.70;27.80;;;1.80;99.90;;;1.52;65.74;96180.13;5079236;28;20454;-56
2023/12/19 05:29:28;;;;;;;49.57;25.37;;;1.80;99.90;;;1.52;65.75;96180.13;5080898;28;20471;-58
2023/12/19 05:31:57;;;;;;;47.73;27.40;;;1.80;99.90;;;1.52;66.00;96174.94;5078751;28;20450;-57
2023/12/19 05:34:25;;;;;;;60.27;29.43;;;1.80;99.90;;;1.51;66.84;96178.44;5079774;28;20489;-56
2023/12/19 05:36:53;;;;;;;51.53;29.40;;;1.80;99.90;;;1.49;66.24;96181.09;5079216;28;20456;-64
2023/12/19 05:39:20;;;;;;;50.43;27.30;;;1.80;99.90;;;1.50;65.70;96187.09;5080610;28;20550;-56
2023/12/19 05:41:47;;;;;;;52.57;28.63;;;1.80;99.90;;;1.49;65.64;96190.59;5079368;28;20500;-62
2023/12/19 05:44:16;;;;;;;51.77;27.27;;;1.80;99.90;;;1.49;67.14;96185.41;5079620;28;20537;-62
2023/12/19 05:46:43;;;;;;;57.57;30.37;;;1.80;99.90;;;1.49;66.64;96190.59;5079154;28;20509;-61
2023/12/19 05:49:11;;;;;;;61.77;31.30;;;1.80;99.90;;;1.48;66.10;96196.69;5080225;28;20478;-57
2023/12/19 05:51:40;;;;;;;57.20;28.37;;;1.80;99.90;;;1.46;66.94;96183.78;5079383;28;20464;-59
2023/12/19 05:54:07;;;;;;;59.70;32.53;;;1.80;99.90;;;1.47;66.02;96188.03;5080680;28;20453;-56
2023/12/19 05:56:35;;;;;;;55.77;30.30;;;1.80;99.90;;;1.49;67.37;96181.09;5077849;28;20499;-61
2023/12/19 05:59:02;;;;;;;49.23;28.60;;;1.80;99.90;;;1.50;67.07;96185.34;5080357;28;20451;-61
2023/12/19 06:01:29;;;;;;;46.17;28.90;;;1.80;99.90;;;1.52;67.08;96185.28;5079102;28;20980;-61
2023/12/19 06:03:57;;;;;;;58.53;28.90;;;1.80;99.90;;;1.53;66.57;96181.81;5079116;28;21079;-61
2023/12/19 06:06:24;;;;;;;56.57;31.77;;;1.80;99.90;;;1.55;66.19;96180.00;5077332;28;20993;-61
2023/12/19 06:08:52;;;;;;;76.23;32.53;;;1.80;99.90;;;1.57;66.52;96180.81;5079270;28;20473;-62
2023/12/19 06:11:27;;;;;;;51.43;29.40;;;1.90;99.90;;;1.55;67.08;96169.63;5079838;28;20447;-57
2023/12/19 06:13:54;;;;;;;67.50;31.90;;;1.90;99.90;;;1.64;66.67;96173.66;5077909;28;20542;-57
2023/12/19 06:16:21;;;;;;;65.80;37.13;;;2.00;99.90;;;1.83;67.29;96176.47;5080965;28;20546;-61
2023/12/19 06:18:48;;;;;;;54.90;31.93;;;2.10;99.90;;;2.11;66.29;96177.16;5078014;28;20474;-55
2023/12/19 06:21:16;;;;;;;63.23;34.00;;;2.40;99.90;;;2.46;66.51;96167.25;5080495;28;20466;-56
2023/12/19 06:23:43;;;;;;;69.50;31.60;;;2.70;99.90;;;2.82;65.02;96171.91;5077910;28;20572;-62
2023/12/19 06:26:12;;;;;;;56.90;32.40;;;3.10;99.90;;;3.18;64.46;96163.53;5080551;28;20470;-61
2023/12/19 06:28:39;;;;;;;51.47;29.77;;;3.50;99.90;;;3.51;63.82;96168.22;5078337;28;20459;-56
2023/12/19 06:31:07;;;;;;;58.77;31.73;;;3.90;99.90;;;3.82;63.63;96177.34;5082639;28;21007;-61
2023/12/19 06:33:36;;;;;;;61.77;33.27;;;4.20;99.90;;;4.08;62.38;96170.97;5078383;28;20462;-56
2023/12/19 06:36:04;;;;;;;59.70;34.33;;;4.50;99.80;;;4.35;61.66;96172.44;5080564;28;20465;-60
2023/12/19 06:38:31;;;;;;;66.07;34.43;;;4.80;99.20;;;4.58;61.10;96173.97;5077701;28;20538;-60
2023/12/19 06:40:59;;;;;;;67.63;32.97;;;5.10;98.60;;;4.75;60.72;96160.16;5080901;28;20469;-57
2023/12/19 06:43:27;;;;;;;71.20;35.13;;;5.30;98.10;;;4.96;60.30;96164.34;5077806;28;20542;-61
2023/12/19 06:45:55;;;;;;;61.90;32.23;;;5.50;97.70;;;5.25;59.87;96172.53;5080525;28;21056;-55
2023/12/19 06:48:23;;;;;;;64.07;32.73;;;5.80;97.50;;;5.54;59.56;96175.47;5077762;28;20959;-57
2023/12/19 06:50:50;;;;;;;58.87;32.53;;;6.10;97.20;;;5.75;58.29;96174.38;5080945;28;20563;-56
2023/12/19 06:53:17;;;;;;;80.00;43.60;;;6.30;96.10;;;6.00;57.98;96162.72;5077477;28;20455;-59
2023/12/19 06:55:45;;;;;;;227.87;97.97;;;6.60;95.80;;;6.39;59.04;96168.53;5080344;28;20869;-60
2023/12/19 06:58:12;;;;;;;136.63;63.70;;;6.80;96.60;;;6.87;58.34;96168.56;5077722;28;20866;-60
2023/12/19 07:00:41;;;;;;;65.80;36.40;;;7.20;96.20;;;7.31;57.01;96176.53;5080148;28;20924;-61
2023/12/19 07:03:08;;;;;;;56.33;32.53;;;7.60;95.60;;;7.67;56.17;96175.31;5076623;28;20829;-56
2023/12/19 07:05:36;;;;;;;67.23;32.50;;;8.00;94.20;;;8.04;54.86;96174.91;5079664;28;20581;-56
2023/12/19 07:08:04;;;;;;;56.17;30.50;;;8.40;93.30;;;8.46;54.84;96182.91;5077427;28;20504;-55
2023/12/19 07:10:31;;;;;;;65.43;31.80;;;8.80;92.80;;;8.83;53.41;96176.25;5080299;28;20541;-57
2023/12/19 07:12:59;;;;;;;54.43;32.20;;;9.30;91.90;;;9.18;52.99;96181.00;5077647;28;20571;-55
2023/12/19 07:15:26;;;;;;;56.50;31.17;;;9.70;90.90;;;9.52;52.11;96179.66;5079747;28;20865;-56
2023/12/19 07:17:54;;;;;;;53.17;30.87;;;10.10;89.20;;;9.85;51.32;96185.41;5078006;28;20509;-56
2023/12/19 07:20:22;;;;;;;51.97;28.90;;;10.40;87.00;;;10.19;50.26;96183.13;5079549;28;20473;-60
2023/12/19 07:22:49;;;;;;;48.70;26.23;;;10.80;84.20;;;10.58;48.48;96173.44;5079764;28;20549;-55
2023/12/19 07:25:17;;;;;;;47.73;27.83;;;11.20;79.80;;;10.98;49.24;96178.50;5083892;28;20600;-55
2023/12/19 07:27:45;;;;;;;51.10;29.67;;;11.60;80.90;;;11.42;47.93;96174.44;5080583;28;20510;-55
2023/12/19 07:30:13;;;;;;;49.60;30.23;;;12.10;78.00;;;11.89;47.35;96178.94;5081747;28;20524;-54
2023/12/19 07:32:41;;;;;;;45.03;28.30;;;12.60;76.90;;;12.26;46.06;96169.09;5083824;28;20550;-55
2023/12/19 07:35:13;;;;;;;54.83;27.27;;;13.00;74.20;;;12.63;44.77;96160.13;5083335;28;20478;-60
2023/12/19 07:37:40;;;;;;;45.93;30.07;;;13.40;71.10;;;12.91;43.97;96164.88;5080833;28;20447;-56
2023/12/19 07:40:10;;;;;;;60.23;32.33;;;13.70;69.00;;;13.19;43.39;96153.91;5083872;28;20857;-61
2023/12/19 07:42:37;;;;;;;51.20;28.00;;;13.90;67.20;;;13.40;42.40;96148.69;5080816;28;20541;-62
2023/12/19 07:45:06;;;;;;;42.40;28.00;;;14.10;65.00;;;13.57;43.09;96144.69;5084135;28;20679;-56
2023/12/19 07:47:34;;;;;;;48.67;27.60;;;14.20;65.70;;;13.81;41.86;96142.63;5084520;28;20527;-61
2023/12/19 07:50:01;;;;;;;47.37;29.90;;;14.30;64.50;;;14.03;42.14;96130.25;5080480;28;20909;-61
2023/12/19 07:52:30;;;;;;;47.87;28.80;;;14.50;65.40;;;14.13;42.34;96135.63;5084678;28;20462;-57
2023/12/19 07:54:57;;;;;;;44.87;29.20;;;14.50;65.30;;;14.12;42.59;96133.94;5080116;28;20990;-56
2023/12/19 07:57:24;;;;;;;53.83;29.37;;;14.40;65.50;;;14.08;42.32;96127.22;5080339;28;20450;-56
2023/12/19 07:59:52;;;;;;;54.10;30.70;;;14.30;64.90;;;13.97;41.88;96128.97;5083745;28;20466;-61
2023/12/19 08:02:19;;;;;;;48.07;30.60;;;14.10;63.50;;;13.86;42.75;96125.56;5079469;28;20455;-63
2023/12/19 08:04:46;;;;;;;60.73;30.60;;;14.00;64.50;;;13.80;42.54;96132.19;5082999;28;20501;-54
2023/12/19 08:07:13;;;;;;;72.27;37.30;;;13.80;64.30;;;13.78;41.71;96136.78;5080131;28;20458;-56
2023/12/19 08:09:42;;;;;;;73.07;39.53;;;13.80;63.10;;;13.74;40.99;96133.56;5083771;28;20580;-61
2023/12/19 08:12:10;;;;;;;69.97;37.27;;;13.70;62.50;;;13.71;41.68;96131.16;5080656;28;20447;-56
2023/12/19 08:14:38;;;;;;;54.33;30.73;;;13.70;62.70;;;13.64;40.87;96127.34;5083603;28;20566;-61
2023/12/19 08:17:05;;;;;;;50.80;30.07;;;13.60;61.10;;;13.62;41.59;96129.28;5080092;28;20447;-55
2023/12/19 08:19:32;;;;;;;55.77;30.37;;;13.60;62.70;;;13.59;41.69;96135.66;5083525;28;20477;-57
2023/12/19 08:22:00;;;;;;;59.83;32.30;;;13.50;63.10;;;13.57;41.35;96127.03;5080268;28;20520;-56
2023/12/19 08:24:27;;;;;;;56.60;32.50;;;13.50;62.70;;;13.54;41.75;96124.63;5082814;28;20482;-60
2023/12/19 08:26:56;;;;;;;59.60;33.20;;;13.50;62.50;;;13.49;41.13;96121.50;5080604;28;20455;-57
2023/12/19 08:29:23;;;;;;;60.50;33.50;;;13.40;61.90;;;13.53;41.52;96124.75;5083531;28;20588;-57
2023/12/19 08:31:50;;;;;;;59.40;31.80;;;13.40;62.80;;;13.54;40.58;96113.22;5079214;28;20477;-56
2023/12/19 08:34:18;;;;;;;66.67;29.60;;;13.40;61.00;;;13.61;41.51;96115.22;5082115;28;20470;-57
2023/12/19 08:36:45;;;;;;;53.63;31.13;;;13.50;61.70;;;13.73;41.66;96117.81;5080153;28;20451;-60
2023/12/19 08:39:12;;;;;;;48.20;30.47;;;13.50;62.50;;;13.84;40.28;96104.53;5082776;28;20477;-62
2023/12/19 08:41:39;;;;;;;47.90;29.30;;;13.60;60.80;;;13.95;40.33;96096.50;5080095;28;20451;-55
2023/12/19 08:44:09;;;;;;;49.13;28.37;;;13.70;60.00;;;13.99;39.82;96105.03;5082829;28;20459;-57
2023/12/19 08:46:36;;;;;;;47.47;27.30;;;13.70;60.00;;;13.94;39.97;96094.84;5080144;28;20486;-56
2023/12/19 08:49:03;;;;;;;41.97;24.77;;;13.70;59.60;;;13.93;39.30;96095.81;5082380;28;20442;-57
2023/12/19 08:51:31;;;;;;;40.33;24.03;;;13.70;58.80;;;13.99;39.77;96094.47;5080297;28;20443;-61
2023/12/19 08:53:57;;;;;;;46.47;26.93;;;13.70;59.20;;;14.07;40.00;96077.94;5082669;28;20442;-56
2023/12/19 08:56:24;;;;;;;38.77;23.20;;;13.80;60.20;;;14.14;41.37;96074.63;5080470;28;20620;-61
2023/12/19 08:58:52;;;;;;;43.30;26.27;;;13.80;62.40;;;14.21;41.18;96074.94;5081591;28;20459;-63
2023/12/19 09:01:20;;;;;;;41.87;25.37;;;13.90;62.00;;;14.32;41.14;96072.19;5079708;28;20844;-57
2023/12/19 09:03:48;;;;;;;39.20;24.53;;;14.00;62.00;;;14.42;41.14;96066.94;5081578;28;20459;-57
2023/12/19 09:06:15;;;;;;;47.17;25.97;;;14.10;62.30;;;14.53;40.72;96063.34;5080178;28;20914;-56
2023/12/19 09:08:42;;;;;;;42.93;26.27;;;14.20;62.20;;;14.62;40.55;96051.97;5081644;28;20447;-61
2023/12/19 09:11:09;;;;;;;40.77;26.50;;;14.30;61.00;;;14.74;40.59;96054.53;5080114;28;20477;-61
2023/12/19 09:13:38;;;;;;;46.27;26.10;;;14.40;61.20;;;14.79;40.46;96042.53;5081515;28;20447;-61
2023/12/19 09:16:07;;;;;;;46.30;28.50;;;14.50;60.90;;;14.89;39.59;96047.84;5080119;28;20549;-56
2023/12/19 09:18:35;;;;;;;45.57;27.87;;;14.60;59.80;;;14.88;40.17;96051.47;5081546;28;20451;-56
2023/12/19 09:21:03;;;;;;;47.40;30.27;;;14.60;59.70;;;14.88;39.87;96041.69;5079824;28;20544;-61
2023/12/19 09:23:30;;;;;;;43.73;28.00;;;14.60;59.40;;;14.93;39.36;96036.00;5081537;28;21303;-62
2023/12/19 09:25:57;;;;;;;49.57;27.17;;;14.60;59.20;;;15.01;39.91;96030.00;5079623;28;20559;-61
2023/12/19 09:28:29;;;;;;;46.20;29.97;;;14.70;59.90;;;15.10;39.21;96031.81;5081061;28;20922;-56
2023/12/19 09:30:57;;;;;;;51.80;28.50;;;14.70;59.20;;;15.20;38.92;96018.59;5079012;28;20495;-56
2023/12/19 09:33:24;;;;;;;50.47;29.70;;;14.80;58.90;;;15.26;39.14;96025.97;5080321;28;20450;-56
2023/12/19 09:35:52;;;;;;;55.80;28.00;;;14.90;59.00;;;15.34;39.49;96023.47;5079077;28;20497;-63
2023/12/19 09:38:20;;;;;;;49.63;30.60;;;15.00;59.20;;;15.44;38.65;96012.84;5081522;28;20469;-62
2023/12/19 09:40:46;;;;;;;55.00;32.47;;;15.00;58.50;;;15.54;38.67;96015.50;5078781;28;20475;-62
2023/12/19 09:43:14;;;;;;;54.73;32.40;;;15.10;58.30;;;15.75;39.13;96021.44;5081177;28;21053;-56
2023/12/19 09:45:43;;;;;;;62.07;36.60;;;15.30;59.10;;;16.04;38.59;96012.59;5078377;28;20502;-56
2023/12/19 09:48:12;;;;;;;59.57;37.47;;;15.50;58.50;;;16.20;37.25;96003.16;5081560;28;20454;-63
2023/12/19 09:50:42;;;;;;;71.90;38.77;;;15.70;57.00;;;16.27;37.02;96006.91;5078726;28;20483;-57
2023/12/19 09:53:11;;;;;;;68.10;39.40;;;15.80;56.90;;;16.35;37.76;96000.88;5081984;28;20517;-62
2023/12/19 09:55:42;;;;;;;70.30;38.77;;;15.90;56.80;;;16.45;38.02;95999.81;5078105;28;20493;-55
2023/12/19 09:58:09;;;;;;;64.87;37.90;;;16.00;57.70;;;16.82;37.76;95998.03;5077827;28;20450;-63
2023/12/19 10:00:39;;;;;;;65.43;38.10;;;16.20;57.90;;;17.27;37.45;95986.53;5081373;28;20619;-57
2023/12/19 10:03:06;;;;;;;65.00;38.20;;;16.60;58.10;;;17.69;36.95;95998.31;5077162;28;20467;-57
2023/12/19 10:05:33;;;;;;;67.10;40.20;;;16.90;57.40;;;17.92;36.51;95993.31;5081547;28;20493;-62
2023/12/19 10:08:01;;;;;;;69.83;40.50;;;17.30;56.40;;;18.14;36.51;95983.13;5077443;28;20955;-56
2023/12/19 10:10:51;;;;;;;70.23;44.33;;;17.50;56.90;;;18.42;34.80;95976.59;5081112;28;20993;-61
2023/12/19 10:13:26;;;;;;;77.27;41.60;;;17.80;53.60;;;18.48;33.91;95976.94;5080705;28;20446;-57
2023/12/19 10:16:01;;;;;;;76.60;42.63;;;17.90;52.80;;;18.44;34.70;95971.09;5077736;28;21036;-57
2023/12/19 10:18:28;;;;;;;87.20;44.17;;;17.90;53.00;;;18.46;35.13;95971.75;5080401;28;20492;-57